Météo Nord-Pas-de-Calais   La météo au plus près de chez vous

Station météorologique

Observations météo à Rocroi (08367)

08367002 382 m Dernier relevé à 11:06
16.7°C
Humidité 74 % Vent 7.9 km/h

Journée consultée

Mercredi 2 Septembre 2026

Synthèse de la journée

Périodes de référence en UTC

Température maximale

16.9°C

à 10:42

06h 06h

Température minimale

12.4°C

à 07:42

18h 18h

Rafale maximale

17 km/h

à 10:36

00h 00h

Précipitations

0 mm

Cumul quotidien

06h 06h

Graphiques de la journée

Heure locale Réduire

Données détaillées

Relevés météo

Pas de 6 minutes Afficher les relevés infra-horaires
Relevés météo détaillés à Rocroi pour le Mercredi 2 Septembre 2026
Heure Température °C Point de rosée °C Humidité % Vent moyen (raf.), km/h Précipitations mm
11:06 16.7 °C 9.6 °C 63 % 6 km/h (14 km/h) 0 mm0 mm
11:00 16.7 °C 9.6 °C 63 % 6 km/h (12 km/h) 0 mm0 mm
10:54 16.6 °C 9.5 °C 63 % 7 km/h (14 km/h) 0 mm0 mm
10:48 16.8 °C 9.9 °C 64 % 6 km/h (11 km/h) 0 mm0 mm
10:42 16.9 °C 10 °C 64 % 7 km/h (14 km/h) 0 mm0 mm
10:36 16.7 °C 8.9 °C 60 % 7 km/h (17 km/h) 0 mm0 mm
10:30 16.7 °C 10.8 °C 68 % 5 km/h (13 km/h) 0 mm0 mm
10:24 16.1 °C 10.8 °C 71 % 5 km/h (13 km/h) 0 mm0 mm
10:18 16 °C 11.8 °C 76 % 6 km/h (14 km/h) 0 mm0 mm
10:12 15.6 °C 10.8 °C 73 % 7 km/h (14 km/h) 0 mm0 mm
10:06 15.5 °C 10.9 °C 74 % 8 km/h (14 km/h) 0 mm0 mm
10:00 15.4 °C 10.8 °C 74 % 8 km/h (13 km/h) 0 mm0 mm
09:54 15.3 °C 10.7 °C 74 % 6 km/h (13 km/h) 0 mm0 mm
09:48 15.4 °C 11.4 °C 77 % 5 km/h (11 km/h) 0 mm0 mm
09:42 15.1 °C 11.7 °C 80 % 6 km/h (12 km/h) 0 mm0 mm
09:36 14.7 °C 11.1 °C 79 % 5 km/h (12 km/h) 0 mm0 mm
09:30 14.6 °C 11 °C 79 % 4 km/h (10 km/h) 0 mm0 mm
09:24 14.4 °C 10.8 °C 79 % 5 km/h (10 km/h) 0 mm0 mm
09:18 14.5 °C 10.7 °C 78 % 5 km/h (12 km/h) 0 mm0 mm
09:12 14.7 °C 11.3 °C 80 % 6 km/h (12 km/h) 0 mm0 mm
09:06 14.5 °C 10.9 °C 79 % 6 km/h (13 km/h) 0 mm0 mm
09:00 14.2 °C 11 °C 81 % 5 km/h (10 km/h) 0 mm0 mm
08:54 13.9 °C 11.2 °C 84 % 3 km/h (9 km/h) 0 mm0 mm
08:48 13.5 °C 10.8 °C 84 % 3 km/h (7 km/h) 0 mm0 mm
08:42 13.1 °C 10.8 °C 86 % 2 km/h (6 km/h) 0 mm0 mm
08:36 12.7 °C 10.4 °C 86 % 3 km/h (6 km/h) 0 mm0 mm
08:30 12.5 °C 10 °C 85 % 3 km/h (7 km/h) 0 mm0 mm
08:24 12.4 °C 9.9 °C 85 % 3 km/h (7 km/h) 0 mm0 mm
08:18 12.4 °C 9.9 °C 85 % 3 km/h (7 km/h) 0 mm0 mm
08:12 12.4 °C 9.8 °C 84 % 3 km/h (6 km/h) 0 mm0 mm
08:06 12.4 °C 9.8 °C 84 % 4 km/h (8 km/h) 0 mm0 mm
08:00 12.4 °C 9.6 °C 83 % 5 km/h (9 km/h) 0 mm0 mm
07:54 12.5 °C 9.7 °C 83 % 6 km/h (10 km/h) 0 mm0 mm
07:48 12.5 °C 9.7 °C 83 % 6 km/h (10 km/h) 0 mm0 mm
07:42 12.4 °C 9.4 °C 82 % 6 km/h (10 km/h) 0 mm0 mm
07:36 12.5 °C 9.5 °C 82 % 5 km/h (9 km/h) 0 mm0 mm
07:30 12.5 °C 9.3 °C 81 % 6 km/h (10 km/h) 0 mm0 mm
07:24 12.5 °C 9.3 °C 81 % 6 km/h (10 km/h) 0 mm0 mm
07:18 12.6 °C 9.4 °C 81 % 6 km/h (10 km/h) 0 mm0 mm
07:12 12.6 °C 9.2 °C 80 % 6 km/h (10 km/h) 0 mm0 mm
07:06 12.7 °C 9.1 °C 79 % 6 km/h (11 km/h) 0 mm0 mm
07:00 12.7 °C 9.1 °C 79 % 6 km/h (13 km/h) 0 mm0 mm
06:54 12.7 °C 9.1 °C 79 % 6 km/h (11 km/h) 0 mm0 mm
06:48 12.8 °C 9.1 °C 78 % 6 km/h (10 km/h) 0 mm0 mm
06:42 12.8 °C 8.9 °C 77 % 6 km/h (10 km/h) 0 mm0 mm
06:36 13 °C 8.7 °C 75 % 5 km/h (10 km/h) 0 mm0 mm
06:30 13.3 °C 8.8 °C 74 % 6 km/h (10 km/h) 0 mm0 mm
06:24 13.4 °C 8.5 °C 72 % 6 km/h (10 km/h) 0 mm0 mm
06:18 13.5 °C 8.5 °C 72 % 6 km/h (10 km/h) 0 mm0 mm
06:12 13.5 °C 8.3 °C 71 % 6 km/h (9 km/h) 0 mm0 mm
06:06 13.6 °C 8.4 °C 71 % 6 km/h (10 km/h) 0 mm0 mm
06:00 13.7 °C 8.5 °C 71 % 6 km/h (10 km/h) 0 mm0 mm
05:54 13.7 °C 8.3 °C 70 % 6 km/h (9 km/h) 0 mm0 mm
05:48 13.7 °C 8.3 °C 70 % 6 km/h (9 km/h) 0 mm0 mm
05:42 13.7 °C 8.3 °C 70 % 6 km/h (9 km/h) 0 mm0 mm
05:36 13.8 °C 8.4 °C 70 % 5 km/h (8 km/h) 0 mm0 mm
05:30 13.8 °C 8.4 °C 70 % 5 km/h (8 km/h) 0 mm0 mm
05:24 13.8 °C 8.6 °C 71 % 5 km/h (9 km/h) 0 mm0 mm
05:18 13.8 °C 8.6 °C 71 % 6 km/h (9 km/h) 0 mm0 mm
05:12 13.8 °C 8.8 °C 72 % 5 km/h (9 km/h) 0 mm0 mm
05:06 13.9 °C 8.7 °C 71 % 5 km/h (9 km/h) 0 mm0 mm
05:00 13.9 °C 8.9 °C 72 % 5 km/h (9 km/h) 0 mm0 mm
04:54 13.9 °C 9.1 °C 73 % 5 km/h (9 km/h) 0 mm0 mm
04:48 14 °C 9.2 °C 73 % 5 km/h (9 km/h) 0 mm0 mm
04:42 14 °C 9.2 °C 73 % 6 km/h (9 km/h) 0 mm0 mm
04:36 13.8 °C 9.4 °C 75 % 5 km/h (8 km/h) 0 mm0 mm
04:30 13.4 °C 9.3 °C 76 % 5 km/h (8 km/h) 0 mm0 mm
04:24 13.1 °C 9.7 °C 80 % 4 km/h (6 km/h) 0 mm0 mm
04:18 13.3 °C 9.7 °C 79 % 4 km/h (6 km/h) 0 mm0 mm
04:12 13.7 °C 9.7 °C 77 % 3 km/h (6 km/h) 0 mm0 mm
04:06 13.7 °C 9.3 °C 75 % 3 km/h (5 km/h) 0 mm0 mm
04:00 13.6 °C 9.6 °C 77 % 4 km/h (5 km/h) 0 mm0 mm
03:54 13.7 °C 9.7 °C 77 % 4 km/h (6 km/h) 0 mm0 mm
03:48 13.7 °C 9.3 °C 75 % 4 km/h (6 km/h) 0 mm0 mm
03:42 13.6 °C 9.2 °C 75 % 4 km/h (6 km/h) 0 mm0 mm
03:36 13.6 °C 9.4 °C 76 % 3 km/h (5 km/h) 0 mm0 mm
03:30 13.5 °C 9.3 °C 76 % 3 km/h (6 km/h) 0 mm0 mm
03:24 13.4 °C 9.4 °C 77 % 3 km/h (6 km/h) 0 mm0 mm
03:18 13.4 °C 9.4 °C 77 % 3 km/h (6 km/h) 0 mm0 mm
03:12 13.4 °C 9.4 °C 77 % 3 km/h (6 km/h) 0 mm0 mm
03:06 13.4 °C 9.6 °C 78 % 4 km/h (7 km/h) 0 mm0 mm
03:00 13.4 °C 9.6 °C 78 % 4 km/h (8 km/h) 0 mm0 mm
02:54 13.3 °C 9.5 °C 78 % 4 km/h (8 km/h) 0 mm0 mm
02:48 13.3 °C 9.7 °C 79 % 4 km/h (8 km/h) 0 mm0 mm
02:42 13.3 °C 9.7 °C 79 % 4 km/h (8 km/h) 0 mm0 mm
02:36 13.3 °C 9.5 °C 78 % 4 km/h (7 km/h) 0 mm0 mm
02:30 13.3 °C 9.5 °C 78 % 5 km/h (8 km/h) 0 mm0 mm
02:24 13.3 °C 9.5 °C 78 % 5 km/h (8 km/h) 0 mm0 mm
02:18 13.3 °C 9.5 °C 78 % 4 km/h (7 km/h) 0 mm0 mm
02:12 13.3 °C 9.5 °C 78 % 5 km/h (7 km/h) 0 mm0 mm
02:06 13.3 °C 9.5 °C 78 % 4 km/h (6 km/h) 0 mm0 mm
02:00 13.3 °C 9.5 °C 78 % 4 km/h (6 km/h) 0 mm0 mm
01:54 13.4 °C 9.6 °C 78 % 4 km/h (8 km/h) 0 mm0 mm
01:48 13.5 °C 9.7 °C 78 % 5 km/h (8 km/h) 0 mm0 mm
01:42 13.5 °C 9.7 °C 78 % 5 km/h (7 km/h) 0 mm0 mm
01:36 13.5 °C 9.7 °C 78 % 5 km/h (7 km/h) 0 mm0 mm
01:30 13.5 °C 9.7 °C 78 % 4 km/h (7 km/h) 0 mm0 mm
01:24 13.4 °C 9.6 °C 78 % 5 km/h (8 km/h) 0 mm0 mm
01:18 13.4 °C 9.8 °C 79 % 5 km/h (8 km/h) 0 mm0 mm
01:12 13.2 °C 9.6 °C 79 % 5 km/h (7 km/h) 0 mm0 mm
01:06 13.1 °C 9.7 °C 80 % 4 km/h (7 km/h) 0 mm0 mm
01:00 13.1 °C 9.5 °C 79 % 4 km/h (6 km/h) 0 mm0 mm
00:54 13.2 °C 9.6 °C 79 % 5 km/h (7 km/h) 0 mm0 mm
00:48 13.2 °C 9.6 °C 79 % 5 km/h (7 km/h) 0 mm0 mm
00:42 13.1 °C 9.5 °C 79 % 4 km/h (7 km/h) 0 mm0 mm
00:36 13.3 °C 9.5 °C 78 % 4 km/h (6 km/h) 0 mm0 mm
00:30 13.4 °C 9.6 °C 78 % 5 km/h (7 km/h) 0 mm0 mm
00:24 13.5 °C 9.7 °C 78 % 4 km/h (7 km/h) 0 mm0 mm
00:18 13.6 °C 9.6 °C 77 % 5 km/h (9 km/h) 0 mm0 mm
00:12 13.8 °C 9.8 °C 77 % 5 km/h (9 km/h) 0 mm0 mm
00:06 13.7 °C 9.7 °C 77 % 5 km/h (9 km/h) 0 mm0 mm
00:00 13.7 °C 9.9 °C 78 % 5 km/h (9 km/h) 0 mm0 mm

Données via Météo-France

Relevés météo à Rocroi

Cette page rassemble les observations de la station de Rocroi : température, humidité, vent, précipitations et pression atmosphérique. Les graphiques facilitent le suivi de la journée, tandis que le tableau donne accès aux mesures horaires et infra-horaires disponibles.

Pour replacer ces mesures dans leur contexte, consultez la climatologie de Rocroi ainsi que ses normales et records. Retrouvez aussi la carte des observations météo en temps réel.